sensor_id;sensor_type;location;lat;lon;timestamp;pressure;altitude;pressure_sealevel;temperature
75811;BMP280;64449;50.016;19.954;2022-10-28T00:01:15;99944.01;;;13.07
75811;BMP280;64449;50.016;19.954;2022-10-28T00:03:42;99944.58;;;13.11
75811;BMP280;64449;50.016;19.954;2022-10-28T00:06:13;99942.34;;;13.14
75811;BMP280;64449;50.016;19.954;2022-10-28T00:08:39;99940.63;;;13.16
75811;BMP280;64449;50.016;19.954;2022-10-28T00:11:08;99938.21;;;13.14
75811;BMP280;64449;50.016;19.954;2022-10-28T00:13:34;99943.05;;;13.12
75811;BMP280;64449;50.016;19.954;2022-10-28T00:16:11;99939.78;;;13.10
75811;BMP280;64449;50.016;19.954;2022-10-28T00:18:37;99941.77;;;13.07
75811;BMP280;64449;50.016;19.954;2022-10-28T00:21:08;99942.91;;;13.02
75811;BMP280;64449;50.016;19.954;2022-10-28T00:23:34;99943.48;;;12.92
75811;BMP280;64449;50.016;19.954;2022-10-28T00:26:08;99938.87;;;12.83
75811;BMP280;64449;50.016;19.954;2022-10-28T00:28:34;99935.72;;;12.72
75811;BMP280;64449;50.016;19.954;2022-10-28T00:31:05;99930.45;;;12.63
75811;BMP280;64449;50.016;19.954;2022-10-28T00:33:30;99928.23;;;12.59
75811;BMP280;64449;50.016;19.954;2022-10-28T00:35:56;99923.74;;;12.57
75811;BMP280;64449;50.016;19.954;2022-10-28T00:38:21;99924.34;;;12.53
75811;BMP280;64449;50.016;19.954;2022-10-28T00:40:46;99920.67;;;12.51
75811;BMP280;64449;50.016;19.954;2022-10-28T00:43:12;99917.40;;;12.48
75811;BMP280;64449;50.016;19.954;2022-10-28T00:45:38;99915.19;;;12.47
75811;BMP280;64449;50.016;19.954;2022-10-28T00:48:04;99909.79;;;12.45
75811;BMP280;64449;50.016;19.954;2022-10-28T00:50:38;99907.44;;;12.43
75811;BMP280;64449;50.016;19.954;2022-10-28T00:53:12;99904.56;;;12.38
75811;BMP280;64449;50.016;19.954;2022-10-28T00:55:38;99906.08;;;12.34
75811;BMP280;64449;50.016;19.954;2022-10-28T00:58:05;99902.14;;;12.30
75811;BMP280;64449;50.016;19.954;2022-10-28T01:00:31;99901.00;;;12.26
75811;BMP280;64449;50.016;19.954;2022-10-28T01:02:57;99900.34;;;12.22
75811;BMP280;64449;50.016;19.954;2022-10-28T01:05:26;99894.52;;;12.17
75811;BMP280;64449;50.016;19.954;2022-10-28T01:07:56;99893.70;;;12.14
75811;BMP280;64449;50.016;19.954;2022-10-28T01:10:30;99890.63;;;12.11
75811;BMP280;64449;50.016;19.954;2022-10-28T01:16:06;99886.49;;;12.05
75811;BMP280;64449;50.016;19.954;2022-10-28T01:24:18;99882.79;;;11.97
75811;BMP280;64449;50.016;19.954;2022-10-28T01:37:37;99875.45;;;11.74
75811;BMP280;64449;50.016;19.954;2022-10-28T01:40:13;99873.56;;;11.73
75811;BMP280;64449;50.016;19.954;2022-10-28T01:46:03;99869.19;;;11.71
75811;BMP280;64449;50.016;19.954;2022-10-28T01:48:44;99870.58;;;11.67
75811;BMP280;64449;50.016;19.954;2022-10-28T01:51:40;99870.77;;;11.61
75811;BMP280;64449;50.016;19.954;2022-10-28T01:54:08;99869.40;;;11.57
75811;BMP280;64449;50.016;19.954;2022-10-28T01:56:37;99867.64;;;11.55
75811;BMP280;64449;50.016;19.954;2022-10-28T01:59:09;99868.79;;;11.52
75811;BMP280;64449;50.016;19.954;2022-10-28T02:01:36;99867.67;;;11.48
75811;BMP280;64449;50.016;19.954;2022-10-28T02:04:02;99862.73;;;11.44
75811;BMP280;64449;50.016;19.954;2022-10-28T02:06:29;99862.14;;;11.42
75811;BMP280;64449;50.016;19.954;2022-10-28T02:09:08;99858.88;;;11.41
75811;BMP280;64449;50.016;19.954;2022-10-28T02:20:00;99843.36;;;11.32
75811;BMP280;64449;50.016;19.954;2022-10-28T02:22:29;99834.55;;;11.29
75811;BMP280;64449;50.016;19.954;2022-10-28T02:25:14;99834.45;;;11.30
75811;BMP280;64449;50.016;19.954;2022-10-28T02:27:55;99829.70;;;11.30
75811;BMP280;64449;50.016;19.954;2022-10-28T02:32:58;99818.98;;;11.28
75811;BMP280;64449;50.016;19.954;2022-10-28T02:35:30;99816.63;;;11.27
75811;BMP280;64449;50.016;19.954;2022-10-28T02:37:59;99814.31;;;11.26
75811;BMP280;64449;50.016;19.954;2022-10-28T02:40:27;99812.06;;;11.22
75811;BMP280;64449;50.016;19.954;2022-10-28T02:42:58;99813.42;;;11.18
75811;BMP280;64449;50.016;19.954;2022-10-28T02:45:47;99810.51;;;11.19
75811;BMP280;64449;50.016;19.954;2022-10-28T02:48:27;99809.50;;;11.20
75811;BMP280;64449;50.016;19.954;2022-10-28T02:51:10;99807.04;;;11.21
75811;BMP280;64449;50.016;19.954;2022-10-28T02:53:51;99806.62;;;11.22
75811;BMP280;64449;50.016;19.954;2022-10-28T02:56:20;99813.69;;;11.19
75811;BMP280;64449;50.016;19.954;2022-10-28T02:58:46;99816.51;;;11.18
75811;BMP280;64449;50.016;19.954;2022-10-28T03:01:12;99819.92;;;11.17
75811;BMP280;64449;50.016;19.954;2022-10-28T03:03:38;99817.86;;;11.12
75811;BMP280;64449;50.016;19.954;2022-10-28T03:06:04;99816.09;;;11.06
75811;BMP280;64449;50.016;19.954;2022-10-28T03:08:29;99812.16;;;11.03
75811;BMP280;64449;50.016;19.954;2022-10-28T03:10:55;99809.83;;;11.00
75811;BMP280;64449;50.016;19.954;2022-10-28T03:13:20;99812.06;;;10.96
75811;BMP280;64449;50.016;19.954;2022-10-28T03:15:46;99811.11;;;10.91
75811;BMP280;64449;50.016;19.954;2022-10-28T03:18:11;99807.82;;;10.87
75811;BMP280;64449;50.016;19.954;2022-10-28T03:20:37;99808.22;;;10.84
75811;BMP280;64449;50.016;19.954;2022-10-28T03:23:02;99805.21;;;10.81
75811;BMP280;64449;50.016;19.954;2022-10-28T03:25:27;99801.98;;;10.80
75811;BMP280;64449;50.016;19.954;2022-10-28T03:27:53;99799.98;;;10.78
75811;BMP280;64449;50.016;19.954;2022-10-28T03:30:18;99800.64;;;10.80
75811;BMP280;64449;50.016;19.954;2022-10-28T03:32:44;99804.58;;;10.80
75811;BMP280;64449;50.016;19.954;2022-10-28T03:35:09;99809.23;;;10.78
75811;BMP280;64449;50.016;19.954;2022-10-28T03:37:35;99812.47;;;10.76
75811;BMP280;64449;50.016;19.954;2022-10-28T03:40:01;99813.63;;;10.74
75811;BMP280;64449;50.016;19.954;2022-10-28T03:42:27;99810.62;;;10.68
75811;BMP280;64449;50.016;19.954;2022-10-28T03:44:53;99815.48;;;10.64
75811;BMP280;64449;50.016;19.954;2022-10-28T03:47:18;99818.27;;;10.61
75811;BMP280;64449;50.016;19.954;2022-10-28T03:49:44;99817.98;;;10.60
75811;BMP280;64449;50.016;19.954;2022-10-28T03:52:09;99814.17;;;10.56
75811;BMP280;64449;50.016;19.954;2022-10-28T03:54:34;99809.26;;;10.53
75811;BMP280;64449;50.016;19.954;2022-10-28T03:57:00;99807.02;;;10.50
75811;BMP280;64449;50.016;19.954;2022-10-28T03:59:25;99798.65;;;10.47
75811;BMP280;64449;50.016;19.954;2022-10-28T04:01:51;99799.17;;;10.45
75811;BMP280;64449;50.016;19.954;2022-10-28T04:04:16;99801.17;;;10.41
75811;BMP280;64449;50.016;19.954;2022-10-28T04:06:41;99800.08;;;10.32
75811;BMP280;64449;50.016;19.954;2022-10-28T04:09:07;99800.21;;;10.25
75811;BMP280;64449;50.016;19.954;2022-10-28T04:11:32;99795.73;;;10.22
75811;BMP280;64449;50.016;19.954;2022-10-28T04:13:57;99791.12;;;10.17
75811;BMP280;64449;50.016;19.954;2022-10-28T04:16:23;99788.15;;;10.12
75811;BMP280;64449;50.016;19.954;2022-10-28T04:18:48;99786.69;;;10.06
75811;BMP280;64449;50.016;19.954;2022-10-28T04:21:14;99788.51;;;10.04
75811;BMP280;64449;50.016;19.954;2022-10-28T04:23:39;99791.93;;;10.04
75811;BMP280;64449;50.016;19.954;2022-10-28T04:26:04;99798.56;;;10.05
75811;BMP280;64449;50.016;19.954;2022-10-28T04:28:30;99801.21;;;10.07
75811;BMP280;64449;50.016;19.954;2022-10-28T04:30:55;99792.50;;;10.09
75811;BMP280;64449;50.016;19.954;2022-10-28T04:33:20;99790.15;;;10.11
75811;BMP280;64449;50.016;19.954;2022-10-28T04:35:46;99782.36;;;10.12
75811;BMP280;64449;50.016;19.954;2022-10-28T04:38:12;99781.60;;;10.12
75811;BMP280;64449;50.016;19.954;2022-10-28T04:40:38;99778.38;;;10.13
75811;BMP280;64449;50.016;19.954;2022-10-28T04:43:04;99775.56;;;10.13
75811;BMP280;64449;50.016;19.954;2022-10-28T04:45:30;99771.21;;;10.14
75811;BMP280;64449;50.016;19.954;2022-10-28T04:47:59;99762.52;;;10.09
75811;BMP280;64449;50.016;19.954;2022-10-28T04:50:26;99761.58;;;10.06
75811;BMP280;64449;50.016;19.954;2022-10-28T04:52:51;99756.40;;;10.03
75811;BMP280;64449;50.016;19.954;2022-10-28T04:55:18;99754.80;;;10.03
75811;BMP280;64449;50.016;19.954;2022-10-28T04:57:44;99754.16;;;10.04
75811;BMP280;64449;50.016;19.954;2022-10-28T05:00:16;99761.42;;;10.07
75811;BMP280;64449;50.016;19.954;2022-10-28T05:02:42;99770.05;;;10.10
75811;BMP280;64449;50.016;19.954;2022-10-28T05:05:08;99777.45;;;10.14
75811;BMP280;64449;50.016;19.954;2022-10-28T05:07:33;99774.92;;;10.19
75811;BMP280;64449;50.016;19.954;2022-10-28T05:09:58;99768.14;;;10.22
75811;BMP280;64449;50.016;19.954;2022-10-28T05:12:24;99756.32;;;10.25
75811;BMP280;64449;50.016;19.954;2022-10-28T05:14:49;99756.93;;;10.26
75811;BMP280;64449;50.016;19.954;2022-10-28T05:17:14;99763.58;;;10.25
75811;BMP280;64449;50.016;19.954;2022-10-28T05:19:40;99757.96;;;10.25
75811;BMP280;64449;50.016;19.954;2022-10-28T05:22:09;99757.23;;;10.25
75811;BMP280;64449;50.016;19.954;2022-10-28T05:24:35;99762.02;;;10.28
75811;BMP280;64449;50.016;19.954;2022-10-28T05:27:00;99759.84;;;10.30
75811;BMP280;64449;50.016;19.954;2022-10-28T05:29:25;99765.27;;;10.30
75811;BMP280;64449;50.016;19.954;2022-10-28T05:31:51;99772.87;;;10.31
75811;BMP280;64449;50.016;19.954;2022-10-28T05:34:16;99764.82;;;10.31
75811;BMP280;64449;50.016;19.954;2022-10-28T05:36:41;99760.33;;;10.31
75811;BMP280;64449;50.016;19.954;2022-10-28T05:39:07;99766.10;;;10.30
75811;BMP280;64449;50.016;19.954;2022-10-28T05:41:32;99767.04;;;10.29
75811;BMP280;64449;50.016;19.954;2022-10-28T05:43:58;99762.82;;;10.30
75811;BMP280;64449;50.016;19.954;2022-10-28T05:46:23;99762.96;;;10.31
75811;BMP280;64449;50.016;19.954;2022-10-28T05:48:48;99762.23;;;10.31
75811;BMP280;64449;50.016;19.954;2022-10-28T05:51:14;99769.35;;;10.33
75811;BMP280;64449;50.016;19.954;2022-10-28T05:53:39;99770.27;;;10.36
75811;BMP280;64449;50.016;19.954;2022-10-28T05:56:07;99768.84;;;10.39
75811;BMP280;64449;50.016;19.954;2022-10-28T05:58:33;99772.14;;;10.43
75811;BMP280;64449;50.016;19.954;2022-10-28T06:00:58;99771.51;;;10.48
75811;BMP280;64449;50.016;19.954;2022-10-28T06:03:24;99773.04;;;10.51
75811;BMP280;64449;50.016;19.954;2022-10-28T06:05:50;99776.90;;;10.51
75811;BMP280;64449;50.016;19.954;2022-10-28T06:08:15;99769.58;;;10.50
75811;BMP280;64449;50.016;19.954;2022-10-28T06:10:41;99765.69;;;10.51
75811;BMP280;64449;50.016;19.954;2022-10-28T06:13:13;99762.19;;;10.49
75811;BMP280;64449;50.016;19.954;2022-10-28T06:15:39;99760.61;;;10.48
75811;BMP280;64449;50.016;19.954;2022-10-28T06:18:04;99760.48;;;10.45
75811;BMP280;64449;50.016;19.954;2022-10-28T06:20:30;99759.85;;;10.44
75811;BMP280;64449;50.016;19.954;2022-10-28T06:22:55;99760.41;;;10.42
75811;BMP280;64449;50.016;19.954;2022-10-28T06:25:22;99760.35;;;10.44
75811;BMP280;64449;50.016;19.954;2022-10-28T06:27:59;99760.67;;;10.47
75811;BMP280;64449;50.016;19.954;2022-10-28T06:30:27;99760.80;;;10.52
75811;BMP280;64449;50.016;19.954;2022-10-28T06:32:55;99756.44;;;10.58
75811;BMP280;64449;50.016;19.954;2022-10-28T06:35:21;99753.60;;;10.65
75811;BMP280;64449;50.016;19.954;2022-10-28T06:37:46;99756.91;;;10.71
75811;BMP280;64449;50.016;19.954;2022-10-28T06:40:11;99760.91;;;10.77
75811;BMP280;64449;50.016;19.954;2022-10-28T06:42:37;99760.77;;;10.81
75811;BMP280;64449;50.016;19.954;2022-10-28T06:45:02;99762.09;;;10.87
75811;BMP280;64449;50.016;19.954;2022-10-28T06:47:28;99768.56;;;10.92
75811;BMP280;64449;50.016;19.954;2022-10-28T06:49:53;99769.06;;;10.97
75811;BMP280;64449;50.016;19.954;2022-10-28T06:52:19;99770.70;;;11.02
75811;BMP280;64449;50.016;19.954;2022-10-28T06:54:44;99767.02;;;11.08
75811;BMP280;64449;50.016;19.954;2022-10-28T06:57:09;99773.31;;;11.15
75811;BMP280;64449;50.016;19.954;2022-10-28T06:59:35;99775.62;;;11.23
75811;BMP280;64449;50.016;19.954;2022-10-28T07:02:01;99774.05;;;11.28
75811;BMP280;64449;50.016;19.954;2022-10-28T07:04:26;99775.25;;;11.33
75811;BMP280;64449;50.016;19.954;2022-10-28T07:06:56;99777.52;;;11.41
75811;BMP280;64449;50.016;19.954;2022-10-28T07:09:22;99782.15;;;11.49
75811;BMP280;64449;50.016;19.954;2022-10-28T07:11:48;99777.48;;;11.55
75811;BMP280;64449;50.016;19.954;2022-10-28T07:14:14;99774.95;;;11.61
75811;BMP280;64449;50.016;19.954;2022-10-28T07:16:40;99777.25;;;11.68
75811;BMP280;64449;50.016;19.954;2022-10-28T07:19:06;99780.52;;;11.74
75811;BMP280;64449;50.016;19.954;2022-10-28T07:21:31;99782.46;;;11.82
75811;BMP280;64449;50.016;19.954;2022-10-28T07:23:57;99787.20;;;11.91
75811;BMP280;64449;50.016;19.954;2022-10-28T07:26:23;99787.39;;;12.01
75811;BMP280;64449;50.016;19.954;2022-10-28T07:28:48;99788.88;;;12.10
75811;BMP280;64449;50.016;19.954;2022-10-28T07:31:14;99782.09;;;12.21
75811;BMP280;64449;50.016;19.954;2022-10-28T07:33:39;99781.73;;;12.35
75811;BMP280;64449;50.016;19.954;2022-10-28T07:36:05;99776.67;;;12.50
75811;BMP280;64449;50.016;19.954;2022-10-28T07:38:31;99780.76;;;12.64
75811;BMP280;64449;50.016;19.954;2022-10-28T07:40:57;99783.59;;;12.75
75811;BMP280;64449;50.016;19.954;2022-10-28T07:43:22;99788.45;;;12.86
75811;BMP280;64449;50.016;19.954;2022-10-28T07:45:54;99784.95;;;12.97
75811;BMP280;64449;50.016;19.954;2022-10-28T07:48:20;99785.56;;;13.08
75811;BMP280;64449;50.016;19.954;2022-10-28T07:50:45;99784.70;;;13.17
75811;BMP280;64449;50.016;19.954;2022-10-28T07:53:10;99783.98;;;13.29
75811;BMP280;64449;50.016;19.954;2022-10-28T07:55:36;99789.29;;;13.41
75811;BMP280;64449;50.016;19.954;2022-10-28T07:58:01;99785.71;;;13.51
75811;BMP280;64449;50.016;19.954;2022-10-28T08:00:27;99781.17;;;13.63
75811;BMP280;64449;50.016;19.954;2022-10-28T08:02:52;99785.43;;;13.75
75811;BMP280;64449;50.016;19.954;2022-10-28T08:05:17;99782.18;;;13.84
75811;BMP280;64449;50.016;19.954;2022-10-28T08:07:43;99780.14;;;13.91
75811;BMP280;64449;50.016;19.954;2022-10-28T08:10:08;99777.59;;;13.98
75811;BMP280;64449;50.016;19.954;2022-10-28T08:12:34;99778.77;;;14.05
75811;BMP280;64449;50.016;19.954;2022-10-28T08:14:59;99778.11;;;14.14
75811;BMP280;64449;50.016;19.954;2022-10-28T08:17:25;99774.61;;;14.23
75811;BMP280;64449;50.016;19.954;2022-10-28T08:19:50;99775.54;;;14.33
75811;BMP280;64449;50.016;19.954;2022-10-28T08:22:15;99777.98;;;14.44
75811;BMP280;64449;50.016;19.954;2022-10-28T08:24:41;99776.09;;;14.56
75811;BMP280;64449;50.016;19.954;2022-10-28T08:27:06;99778.44;;;14.68
75811;BMP280;64449;50.016;19.954;2022-10-28T08:29:32;99777.71;;;14.83
75811;BMP280;64449;50.016;19.954;2022-10-28T08:31:58;99771.32;;;14.99
75811;BMP280;64449;50.016;19.954;2022-10-28T08:34:23;99770.23;;;15.13
75811;BMP280;64449;50.016;19.954;2022-10-28T08:36:54;99765.77;;;15.29
75811;BMP280;64449;50.016;19.954;2022-10-28T08:39:20;99770.15;;;15.44
75811;BMP280;64449;50.016;19.954;2022-10-28T08:41:50;99767.82;;;15.60
75811;BMP280;64449;50.016;19.954;2022-10-28T08:49:26;99763.86;;;16.04
75811;BMP280;64449;50.016;19.954;2022-10-28T08:52:25;99764.80;;;16.19
75811;BMP280;64449;50.016;19.954;2022-10-28T08:55:03;99762.86;;;16.35
75811;BMP280;64449;50.016;19.954;2022-10-28T08:57:50;99758.36;;;16.48
75811;BMP280;64449;50.016;19.954;2022-10-28T09:00:23;99750.93;;;16.61
75811;BMP280;64449;50.016;19.954;2022-10-28T09:05:27;99753.70;;;16.88
75811;BMP280;64449;50.016;19.954;2022-10-28T09:07:53;99748.73;;;17.00
75811;BMP280;64449;50.016;19.954;2022-10-28T09:10:35;99751.64;;;17.15
75811;BMP280;64449;50.016;19.954;2022-10-28T09:13:22;99748.61;;;17.31
75811;BMP280;64449;50.016;19.954;2022-10-28T09:16:07;99749.06;;;17.48
75811;BMP280;64449;50.016;19.954;2022-10-28T09:18:50;99748.34;;;17.67
75811;BMP280;64449;50.016;19.954;2022-10-28T09:21:36;99751.70;;;17.86
75811;BMP280;64449;50.016;19.954;2022-10-28T09:24:26;99756.02;;;18.06
75811;BMP280;64449;50.016;19.954;2022-10-28T09:27:03;99756.31;;;18.24
75811;BMP280;64449;50.016;19.954;2022-10-28T09:39:42;99743.39;;;19.15
75811;BMP280;64449;50.016;19.954;2022-10-28T09:42:13;99741.35;;;19.33
75811;BMP280;64449;50.016;19.954;2022-10-28T09:47:20;99743.31;;;19.71
75811;BMP280;64449;50.016;19.954;2022-10-28T09:49:48;99744.33;;;19.88
75811;BMP280;64449;50.016;19.954;2022-10-28T09:52:24;99740.09;;;20.05
75811;BMP280;64449;50.016;19.954;2022-10-28T09:54:52;99736.06;;;20.22
75811;BMP280;64449;50.016;19.954;2022-10-28T09:57:19;99730.89;;;20.39
75811;BMP280;64449;50.016;19.954;2022-10-28T09:59:45;99727.34;;;20.53
75811;BMP280;64449;50.016;19.954;2022-10-28T10:02:26;99721.57;;;20.68
75811;BMP280;64449;50.016;19.954;2022-10-28T10:04:56;99724.85;;;20.85
75811;BMP280;64449;50.016;19.954;2022-10-28T10:07:38;99719.65;;;20.99
75811;BMP280;64449;50.016;19.954;2022-10-28T10:10:13;99716.64;;;21.12
75811;BMP280;64449;50.016;19.954;2022-10-28T10:12:40;99714.67;;;21.28
75811;BMP280;64449;50.016;19.954;2022-10-28T10:15:12;99717.26;;;21.41
75811;BMP280;64449;50.016;19.954;2022-10-28T10:17:46;99720.38;;;21.53
75811;BMP280;64449;50.016;19.954;2022-10-28T10:20:15;99721.56;;;21.65
75811;BMP280;64449;50.016;19.954;2022-10-28T10:22:42;99716.45;;;21.77
75811;BMP280;64449;50.016;19.954;2022-10-28T10:28:04;99718.10;;;22.04
75811;BMP280;64449;50.016;19.954;2022-10-28T10:30:44;99719.38;;;22.23
75811;BMP280;64449;50.016;19.954;2022-10-28T10:33:20;99715.77;;;22.42
75811;BMP280;64449;50.016;19.954;2022-10-28T10:35:56;99716.67;;;22.59
75811;BMP280;64449;50.016;19.954;2022-10-28T10:38:22;99714.20;;;22.73
75811;BMP280;64449;50.016;19.954;2022-10-28T10:40:51;99713.77;;;22.88
75811;BMP280;64449;50.016;19.954;2022-10-28T10:48:33;99700.83;;;23.34
75811;BMP280;64449;50.016;19.954;2022-10-28T10:51:21;99698.35;;;23.47
75811;BMP280;64449;50.016;19.954;2022-10-28T10:53:48;99695.33;;;23.62
75811;BMP280;64449;50.016;19.954;2022-10-28T10:56:23;99692.52;;;23.76
75811;BMP280;64449;50.016;19.954;2022-10-28T10:58:50;99690.48;;;23.90
75811;BMP280;64449;50.016;19.954;2022-10-28T11:01:20;99687.28;;;24.03
75811;BMP280;64449;50.016;19.954;2022-10-28T11:03:49;99686.66;;;24.14
75811;BMP280;64449;50.016;19.954;2022-10-28T11:06:38;99686.48;;;24.23
75811;BMP280;64449;50.016;19.954;2022-10-28T11:09:15;99682.65;;;24.37
75811;BMP280;64449;50.016;19.954;2022-10-28T11:11:42;99683.27;;;24.48
75811;BMP280;64449;50.016;19.954;2022-10-28T11:16:48;99683.89;;;24.74
75811;BMP280;64449;50.016;19.954;2022-10-28T11:19:19;99680.40;;;24.92
75811;BMP280;64449;50.016;19.954;2022-10-28T11:22:05;99675.20;;;25.09
75811;BMP280;64449;50.016;19.954;2022-10-28T11:27:28;99674.61;;;25.37
75811;BMP280;64449;50.016;19.954;2022-10-28T11:29:58;99669.11;;;25.47
75811;BMP280;64449;50.016;19.954;2022-10-28T11:33:17;99670.16;;;25.43
75811;BMP280;64449;50.016;19.954;2022-10-28T11:41:46;99663.27;;;25.60
75811;BMP280;64449;50.016;19.954;2022-10-28T11:47:28;99660.30;;;25.73
75811;BMP280;64449;50.016;19.954;2022-10-28T11:53:11;99658.33;;;25.82
75811;BMP280;64449;50.016;19.954;2022-10-28T11:55:56;99660.80;;;25.84
75811;BMP280;64449;50.016;19.954;2022-10-28T12:06:17;99657.27;;;26.02
75811;BMP280;64449;50.016;19.954;2022-10-28T12:08:59;99655.71;;;26.06
75811;BMP280;64449;50.016;19.954;2022-10-28T12:16:47;99642.39;;;26.07
75811;BMP280;64449;50.016;19.954;2022-10-28T12:19:21;99643.39;;;25.98
75811;BMP280;64449;50.016;19.954;2022-10-28T12:24:52;99639.10;;;26.01
75811;BMP280;64449;50.016;19.954;2022-10-28T12:27:24;99636.97;;;26.02
75811;BMP280;64449;50.016;19.954;2022-10-28T12:29:55;99634.31;;;26.03
75811;BMP280;64449;50.016;19.954;2022-10-28T12:32:27;99634.51;;;26.01
75811;BMP280;64449;50.016;19.954;2022-10-28T12:35:04;99629.22;;;25.89
75811;BMP280;64449;50.016;19.954;2022-10-28T12:37:37;99626.65;;;25.81
75811;BMP280;64449;50.016;19.954;2022-10-28T12:40:30;99627.02;;;25.76
75811;BMP280;64449;50.016;19.954;2022-10-28T12:43:18;99626.95;;;25.71
75811;BMP280;64449;50.016;19.954;2022-10-28T12:45:47;99619.35;;;25.59
75811;BMP280;64449;50.016;19.954;2022-10-28T12:48:50;99616.46;;;25.47
75811;BMP280;64449;50.016;19.954;2022-10-28T12:51:15;99611.95;;;25.40
75811;BMP280;64449;50.016;19.954;2022-10-28T12:53:59;99613.29;;;25.33
75811;BMP280;64449;50.016;19.954;2022-10-28T12:56:30;99609.96;;;25.35
75811;BMP280;64449;50.016;19.954;2022-10-28T12:59:05;99610.69;;;25.37
75811;BMP280;64449;50.016;19.954;2022-10-28T13:01:33;99608.85;;;25.41
75811;BMP280;64449;50.016;19.954;2022-10-28T13:03:59;99606.59;;;25.37
75811;BMP280;64449;50.016;19.954;2022-10-28T13:10:04;99603.38;;;25.15
75811;BMP280;64449;50.016;19.954;2022-10-28T13:12:50;99602.67;;;25.12
75811;BMP280;64449;50.016;19.954;2022-10-28T13:20:50;99599.77;;;25.22
75811;BMP280;64449;50.016;19.954;2022-10-28T13:23:37;99598.50;;;25.28
75811;BMP280;64449;50.016;19.954;2022-10-28T13:29:41;99600.63;;;25.44
75811;BMP280;64449;50.016;19.954;2022-10-28T13:32:32;99604.52;;;25.49
75811;BMP280;64449;50.016;19.954;2022-10-28T13:34:59;99601.02;;;25.48
75811;BMP280;64449;50.016;19.954;2022-10-28T13:37:32;99596.52;;;25.43
75811;BMP280;64449;50.016;19.954;2022-10-28T13:39:58;99594.63;;;25.38
75811;BMP280;64449;50.016;19.954;2022-10-28T13:47:35;99593.64;;;25.19
75811;BMP280;64449;50.016;19.954;2022-10-28T13:52:40;99595.60;;;25.01
75811;BMP280;64449;50.016;19.954;2022-10-28T13:57:46;99593.27;;;24.63
75811;BMP280;64449;50.016;19.954;2022-10-28T14:00:33;99600.00;;;24.45
75811;BMP280;64449;50.016;19.954;2022-10-28T14:03:18;99592.45;;;24.25
75811;BMP280;64449;50.016;19.954;2022-10-28T14:08:20;99593.48;;;24.00
75811;BMP280;64449;50.016;19.954;2022-10-28T14:11:21;99594.30;;;23.92
75811;BMP280;64449;50.016;19.954;2022-10-28T14:13:54;99589.55;;;23.78
75811;BMP280;64449;50.016;19.954;2022-10-28T14:16:25;99593.19;;;23.69
75811;BMP280;64449;50.016;19.954;2022-10-28T14:19:05;99593.56;;;23.60
75811;BMP280;64449;50.016;19.954;2022-10-28T14:21:49;99595.71;;;23.53
75811;BMP280;64449;50.016;19.954;2022-10-28T14:24:37;99594.98;;;23.43
75811;BMP280;64449;50.016;19.954;2022-10-28T14:35:04;99592.07;;;23.19
75811;BMP280;64449;50.016;19.954;2022-10-28T14:40:23;99587.14;;;23.16
75811;BMP280;64449;50.016;19.954;2022-10-28T14:45:58;99583.91;;;23.03
75811;BMP280;64449;50.016;19.954;2022-10-28T14:51:11;99583.64;;;22.82
75811;BMP280;64449;50.016;19.954;2022-10-28T14:53:40;99589.42;;;22.73
75811;BMP280;64449;50.016;19.954;2022-10-28T14:56:30;99591.17;;;22.64
75811;BMP280;64449;50.016;19.954;2022-10-28T14:59:11;99592.91;;;22.57
75811;BMP280;64449;50.016;19.954;2022-10-28T15:02:09;99590.71;;;22.46
75811;BMP280;64449;50.016;19.954;2022-10-28T15:04:36;99596.48;;;22.33
75811;BMP280;64449;50.016;19.954;2022-10-28T15:07:03;99597.11;;;22.22
75811;BMP280;64449;50.016;19.954;2022-10-28T15:09:30;99592.87;;;22.10
75811;BMP280;64449;50.016;19.954;2022-10-28T15:12:03;99588.75;;;22.01
75811;BMP280;64449;50.016;19.954;2022-10-28T15:14:35;99583.30;;;21.90
75811;BMP280;64449;50.016;19.954;2022-10-28T15:17:23;99579.12;;;21.80
75811;BMP280;64449;50.016;19.954;2022-10-28T15:19:56;99582.36;;;21.69
75811;BMP280;64449;50.016;19.954;2022-10-28T15:22:31;99581.46;;;21.64
75811;BMP280;64449;50.016;19.954;2022-10-28T15:25:01;99582.48;;;21.63
75811;BMP280;64449;50.016;19.954;2022-10-28T15:27:34;99583.61;;;21.60
75811;BMP280;64449;50.016;19.954;2022-10-28T15:30:02;99582.53;;;21.60
75811;BMP280;64449;50.016;19.954;2022-10-28T15:32:33;99587.46;;;21.56
75811;BMP280;64449;50.016;19.954;2022-10-28T15:34:58;99587.35;;;21.49
75811;BMP280;64449;50.016;19.954;2022-10-28T15:37:29;99584.59;;;21.42
75811;BMP280;64449;50.016;19.954;2022-10-28T15:40:29;99583.30;;;21.34
75811;BMP280;64449;50.016;19.954;2022-10-28T15:43:16;99579.89;;;21.25
75811;BMP280;64449;50.016;19.954;2022-10-28T15:45:42;99576.30;;;21.18
75811;BMP280;64449;50.016;19.954;2022-10-28T15:48:20;99574.95;;;21.10
75811;BMP280;64449;50.016;19.954;2022-10-28T15:53:38;99575.10;;;20.93
75811;BMP280;64449;50.016;19.954;2022-10-28T15:56:23;99574.85;;;20.86
75811;BMP280;64449;50.016;19.954;2022-10-28T15:59:05;99573.34;;;20.77
75811;BMP280;64449;50.016;19.954;2022-10-28T16:01:39;99573.86;;;20.69
75811;BMP280;64449;50.016;19.954;2022-10-28T16:06:55;99573.91;;;20.52
75811;BMP280;64449;50.016;19.954;2022-10-28T16:11:54;99576.56;;;20.34
75811;BMP280;64449;50.016;19.954;2022-10-28T16:14:32;99576.41;;;20.28
75811;BMP280;64449;50.016;19.954;2022-10-28T16:17:14;99577.55;;;20.22
75811;BMP280;64449;50.016;19.954;2022-10-28T16:19:52;99579.38;;;20.16
75811;BMP280;64449;50.016;19.954;2022-10-28T16:22:19;99587.06;;;20.12
75811;BMP280;64449;50.016;19.954;2022-10-28T16:24:45;99584.98;;;20.07
75811;BMP280;64449;50.016;19.954;2022-10-28T16:27:22;99586.38;;;20.03
75811;BMP280;64449;50.016;19.954;2022-10-28T16:29:49;99586.73;;;19.99
75811;BMP280;64449;50.016;19.954;2022-10-28T16:32:16;99588.27;;;19.95
75811;BMP280;64449;50.016;19.954;2022-10-28T16:34:42;99586.36;;;19.90
75811;BMP280;64449;50.016;19.954;2022-10-28T16:37:28;99593.02;;;19.84
75811;BMP280;64449;50.016;19.954;2022-10-28T16:39:54;99593.09;;;19.79
75811;BMP280;64449;50.016;19.954;2022-10-28T16:42:22;99596.41;;;19.74